E.r.bristol — A8XQ6 — position and weather

sailwx.info

Track history (hours):
 
Tides and Currents Weather Stations Pressure Air Temp Water Temp Dewpoint Dewpoint Depression Visibility Wind Speed Wind Dir Waves Ship Positions

E.r.bristol

Last reported at 2017-Jun-19 02:29 UTC. Time now 2017-Jun-29 12:43 UTC.
Position S 06°44' E 113°07'.
Warning: this ship's position is 10 days out of date.

Length 188 m; draft 6.8 m.

Type: Cargo ship. MMSI: 636092151.

Date/timePositionNaut miles runAvg speedWind from/ knotsBaromVisibWave heightAir tempDewpointWater temp
2017-Jun-19 02:29S 06°44' E 113°07'712.1
2017-Jun-19 01:54S 06°46' E 112°60'512.1
2017-Jun-19 01:28S 06°48' E 112°55'612.2
2017-Jun-19 01:00S 06°50' E 112°49'5 8.5
2017-Jun-19 00:28S 06°52' E 112°45'4 8.8
2017-Jun-19 00:00S 06°55' E 112°43'611.9
2017-Jun-18 23:30S 07°01' E 112°41'612.4
2017-Jun-18 23:00S 07°07' E 112°39'610.9
2017-Jun-18 22:30S 07°11' E 112°42'2 0.8
2017-Jun-18 20:35S 07°12' E 112°44'0 0.0
2017-Jun-18 20:29S 07°12' E 112°44'0 0.0
2017-Jun-18 19:56S 07°12' E 112°44'0 0.0
2017-Jun-18 19:23S 07°12' E 112°44'0 0.0
2017-Jun-18 18:11S 07°12' E 112°44'0 0.0
2017-Jun-18 17:47S 07°12' E 112°44'0 0.0
2017-Jun-18 16:35S 07°12' E 112°44'0 0.0
2017-Jun-18 16:29S 07°12' E 112°44'0 0.0
2017-Jun-18 15:11S 07°12' E 112°44'0 0.0
2017-Jun-18 14:32S 07°12' E 112°44'0 0.0
2017-Jun-18 13:17S 07°12' E 112°44'0 0.0
2017-Jun-18 12:59S 07°12' E 112°44'0 0.0
2017-Jun-18 01:35S 07°12' E 112°44'0 0.0
2017-Jun-17 23:50S 07°12' E 112°44'0 0.0
2017-Jun-17 23:29S 07°12' E 112°44'0 0.0
2017-Jun-17 22:56S 07°12' E 112°44'0 0.0
2017-Jun-17 22:14S 07°12' E 112°44'0 0.0
2017-Jun-17 20:14S 07°12' E 112°44'0 0.0
2017-Jun-17 19:11S 07°12' E 112°44'0 0.0
2017-Jun-17 18:56S 07°12' E 112°44'0 0.0
2017-Jun-17 18:20S 07°12' E 112°44'0 0.0
2017-Jun-17 16:44S 07°12' E 112°44'0 0.0
2017-Jun-17 14:35S 07°12' E 112°44'0 0.0
2017-Jun-17 14:26S 07°12' E 112°44'0 0.0
2017-Jun-17 12:26S 07°12' E 112°44'0 0.0
2017-Jun-17 11:53S 07°12' E 112°44'0 0.0
2017-Jun-17 11:26S 07°12' E 112°44'0 0.0
2017-Jun-17 08:29S 07°12' E 112°44'0 0.0
2017-Jun-17 07:44S 07°12' E 112°44'0 0.0
2017-Jun-17 07:14S 07°12' E 112°44'0 0.0
2017-Jun-17 06:02S 07°12' E 112°44'0 0.0
2017-Jun-17 05:41S 07°12' E 112°44'0 0.0
2017-Jun-17 05:23S 07°12' E 112°44'0 0.0
2017-Jun-17 04:50S 07°12' E 112°44'0 0.0
2017-Jun-17 02:53S 07°12' E 112°44'0 0.0
2017-Jun-16 20:05S 07°12' E 112°44'0 0.0
2017-Jun-16 20:00S 07°12' E 112°44'0 0.0
2017-Jun-16 19:29S 07°12' E 112°44'0 0.0
2017-Jun-16 19:00S 07°12' E 112°44'0 0.7
2017-Jun-16 18:29S 07°12' E 112°43'3 7.1
2017-Jun-16 18:00S 07°10' E 112°40'610.7
2017-Jun-16 17:28S 07°04' E 112°40'511.2
2017-Jun-16 17:00S 06°59' E 112°42'611.0
2017-Jun-16 16:29S 06°54' E 112°44'4 8.7
2017-Jun-16 16:00S 06°50' E 112°45'2 3.4
2017-Jun-16 15:28S 06°48' E 112°46'0 0.0
2017-Jun-16 06:22S 06°49' E 112°46'0 0.0
2017-Jun-16 05:58S 06°49' E 112°46'0 0.0
2017-Jun-16 01:16S 06°49' E 112°46'0 0.0
2017-Jun-16 00:43S 06°49' E 112°46'0 0.1
2017-Jun-16 00:28S 06°49' E 112°46'0 0.0
2017-Jun-15 23:58S 06°49' E 112°46'0 0.0
2017-Jun-15 20:13S 06°49' E 112°46'0 0.1
2017-Jun-15 19:55S 06°49' E 112°46'0 0.0
2017-Jun-15 15:01S 06°49' E 112°46'0 0.0
2017-Jun-15 14:55S 06°49' E 112°46'0 0.0
2017-Jun-15 06:52S 06°49' E 112°46'1 1.8
2017-Jun-15 06:28S 06°48' E 112°46'11 8.9
2017-Jun-15 05:13S 06°42' E 112°36'  
Track history (hours):
 
Tides and Currents Weather Stations Pressure Air Temp Water Temp Dewpoint Dewpoint Depression Visibility Wind Speed Wind Dir Waves Ship Positions

E.r.bristol

Last reported at 2017-Jun-19 02:29 UTC. Time now 2017-Jun-29 12:43 UTC.
Position S 06°44' E 113°07'.
Warning: this ship's position is 10 days out of date.

Length 188 m; draft 6.8 m.

Type: Cargo ship. MMSI: 636092151.

Date/timePositionNaut miles runAvg speedWind from/ knotsBaromVisibWave heightAir tempDewpointWater temp
2017-Jun-19 02:29S 06°44' E 113°07'712.1
2017-Jun-19 01:54S 06°46' E 112°60'512.1
2017-Jun-19 01:28S 06°48' E 112°55'612.2
2017-Jun-19 01:00S 06°50' E 112°49'5 8.5
2017-Jun-19 00:28S 06°52' E 112°45'4 8.8
2017-Jun-19 00:00S 06°55' E 112°43'611.9
2017-Jun-18 23:30S 07°01' E 112°41'612.4
2017-Jun-18 23:00S 07°07' E 112°39'610.9
2017-Jun-18 22:30S 07°11' E 112°42'2 0.8
2017-Jun-18 20:35S 07°12' E 112°44'0 0.0
2017-Jun-18 20:29S 07°12' E 112°44'0 0.0
2017-Jun-18 19:56S 07°12' E 112°44'0 0.0
2017-Jun-18 19:23S 07°12' E 112°44'0 0.0
2017-Jun-18 18:11S 07°12' E 112°44'0 0.0
2017-Jun-18 17:47S 07°12' E 112°44'0 0.0
2017-Jun-18 16:35S 07°12' E 112°44'0 0.0
2017-Jun-18 16:29S 07°12' E 112°44'0 0.0
2017-Jun-18 15:11S 07°12' E 112°44'0 0.0
2017-Jun-18 14:32S 07°12' E 112°44'0 0.0
2017-Jun-18 13:17S 07°12' E 112°44'0 0.0
2017-Jun-18 12:59S 07°12' E 112°44'0 0.0
2017-Jun-18 01:35S 07°12' E 112°44'0 0.0
2017-Jun-17 23:50S 07°12' E 112°44'0 0.0
2017-Jun-17 23:29S 07°12' E 112°44'0 0.0
2017-Jun-17 22:56S 07°12' E 112°44'0 0.0
2017-Jun-17 22:14S 07°12' E 112°44'0 0.0
2017-Jun-17 20:14S 07°12' E 112°44'0 0.0
2017-Jun-17 19:11S 07°12' E 112°44'0 0.0
2017-Jun-17 18:56S 07°12' E 112°44'0 0.0
2017-Jun-17 18:20S 07°12' E 112°44'0 0.0
2017-Jun-17 16:44S 07°12' E 112°44'0 0.0
2017-Jun-17 14:35S 07°12' E 112°44'0 0.0
2017-Jun-17 14:26S 07°12' E 112°44'0 0.0
2017-Jun-17 12:26S 07°12' E 112°44'0 0.0
2017-Jun-17 11:53S 07°12' E 112°44'0 0.0
2017-Jun-17 11:26S 07°12' E 112°44'0 0.0
2017-Jun-17 08:29S 07°12' E 112°44'0 0.0
2017-Jun-17 07:44S 07°12' E 112°44'0 0.0
2017-Jun-17 07:14S 07°12' E 112°44'0 0.0
2017-Jun-17 06:02S 07°12' E 112°44'0 0.0
2017-Jun-17 05:41S 07°12' E 112°44'0 0.0
2017-Jun-17 05:23S 07°12' E 112°44'0 0.0
2017-Jun-17 04:50S 07°12' E 112°44'0 0.0
2017-Jun-17 02:53S 07°12' E 112°44'0 0.0
2017-Jun-16 20:05S 07°12' E 112°44'0 0.0
2017-Jun-16 20:00S 07°12' E 112°44'0 0.0
2017-Jun-16 19:29S 07°12' E 112°44'0 0.0
2017-Jun-16 19:00S 07°12' E 112°44'0 0.7
2017-Jun-16 18:29S 07°12' E 112°43'3 7.1
2017-Jun-16 18:00S 07°10' E 112°40'610.7
2017-Jun-16 17:28S 07°04' E 112°40'511.2
2017-Jun-16 17:00S 06°59' E 112°42'611.0
2017-Jun-16 16:29S 06°54' E 112°44'4 8.7
2017-Jun-16 16:00S 06°50' E 112°45'2 3.4
2017-Jun-16 15:28S 06°48' E 112°46'0 0.0
2017-Jun-16 06:22S 06°49' E 112°46'0 0.0
2017-Jun-16 05:58S 06°49' E 112°46'0 0.0
2017-Jun-16 01:16S 06°49' E 112°46'0 0.0
2017-Jun-16 00:43S 06°49' E 112°46'0 0.1
2017-Jun-16 00:28S 06°49' E 112°46'0 0.0
2017-Jun-15 23:58S 06°49' E 112°46'0 0.0
2017-Jun-15 20:13S 06°49' E 112°46'0 0.1
2017-Jun-15 19:55S 06°49' E 112°46'0 0.0
2017-Jun-15 15:01S 06°49' E 112°46'0 0.0
2017-Jun-15 14:55S 06°49' E 112°46'0 0.0
2017-Jun-15 06:52S 06°49' E 112°46'1 1.8
2017-Jun-15 06:28S 06°48' E 112°46'11 8.9
2017-Jun-15 05:13S 06°42' E 112°36'  

Dump ship's entire track history